Time;durP1;ratioP1;P1;durP2;ratioP2;P2;SDS_P1;SDS_P2;PMS_P1;PMS_P2;Temp;Humidity;BMP_temperature;BMP_pressure;BME280_temperature;BME280_humidity;BME280_pressure;Samples;Min_cycle;Max_cycle;Signal;HPM_P1;HPM_P2
2023/01/05 00:01:38;;;;;;;3.38;1.17;;;;;;;;;;5121181;28;20063;-83
2023/01/05 00:04:05;;;;;;;3.33;1.00;;;;;;;;;;5122232;28;20023;-82
2023/01/05 00:06:31;;;;;;;2.85;1.10;;;;;;;;;;5113808;28;20077;-81
2023/01/05 00:08:58;;;;;;;2.67;1.10;;;;;;;;;;5111851;28;20059;-83
2023/01/05 00:22:44;;;;;;;3.95;1.00;;;;;;;;;;5105792;28;20047;-82
2023/01/05 00:25:11;;;;;;;1.83;0.80;;;;;;;;;;5105780;28;20036;-84
2023/01/05 00:27:37;;;;;;;2.00;0.65;;;;;;;;;;5117646;28;20058;-84
2023/01/05 00:30:04;;;;;;;2.63;0.73;;;;;;;;;;5105090;28;20032;-83
2023/01/05 00:32:30;;;;;;;2.08;0.80;;;;;;;;;;5106609;28;20314;-82
2023/01/05 00:34:57;;;;;;;1.58;0.85;;;;;;;;;;5105192;28;20027;-84
2023/01/05 00:37:24;;;;;;;2.00;0.80;;;;;;;;;;5113968;28;20031;-79
2023/01/05 00:39:51;;;;;;;3.80;1.15;;;;;;;;;;5103988;28;20454;-81
2023/01/05 00:42:17;;;;;;;2.25;0.90;;;;;;;;;;5121687;28;20119;-82
2023/01/05 00:44:43;;;;;;;2.60;0.90;;;;;;;;;;5122899;28;20039;-83
2023/01/05 00:47:09;;;;;;;2.22;0.80;;;;;;;;;;5105717;28;20097;-82
2023/01/05 00:49:35;;;;;;;3.03;1.00;;;;;;;;;;5106196;28;20035;-83
2023/01/05 00:52:01;;;;;;;2.92;0.90;;;;;;;;;;5118554;28;20054;-83
2023/01/05 00:54:27;;;;;;;3.20;0.90;;;;;;;;;;5117916;28;20031;-82
2023/01/05 00:56:54;;;;;;;3.40;1.00;;;;;;;;;;5121309;28;20564;-84
2023/01/05 00:59:20;;;;;;;2.28;1.00;;;;;;;;;;5112635;28;20032;-82
2023/01/05 01:01:50;;;;;;;2.38;0.88;;;;;;;;;;5109718;28;20032;-83
2023/01/05 01:04:17;;;;;;;2.00;0.80;;;;;;;;;;5102914;28;20085;-82
2023/01/05 01:06:43;;;;;;;3.38;1.15;;;;;;;;;;5105212;28;20035;-82
2023/01/05 01:09:09;;;;;;;2.42;0.80;;;;;;;;;;5104451;28;20663;-81
2023/01/05 01:11:36;;;;;;;1.80;0.80;;;;;;;;;;5114549;28;20382;-83
2023/01/05 01:14:02;;;;;;;1.90;0.60;;;;;;;;;;5126971;27;20031;-84
2023/01/05 01:16:29;;;;;;;1.83;0.77;;;;;;;;;;5145564;27;20019;-82
2023/01/05 01:18:56;;;;;;;1.85;0.65;;;;;;;;;;5127947;27;20057;-82
2023/01/05 01:21:22;;;;;;;1.33;0.60;;;;;;;;;;5109350;28;20089;-81
2023/01/05 01:23:48;;;;;;;2.78;0.80;;;;;;;;;;5111985;28;20030;-83
2023/01/05 01:26:15;;;;;;;2.10;0.60;;;;;;;;;;5122061;28;20036;-83
2023/01/05 01:28:41;;;;;;;2.17;0.80;;;;;;;;;;5110778;28;20028;-85
2023/01/05 01:31:07;;;;;;;1.65;0.80;;;;;;;;;;5110258;28;20357;-82
2023/01/05 01:33:34;;;;;;;1.67;0.75;;;;;;;;;;5103183;28;20016;-83
2023/01/05 01:36:03;;;;;;;1.08;0.50;;;;;;;;;;5102522;28;20720;-81
2023/01/05 01:38:29;;;;;;;1.55;0.60;;;;;;;;;;5112025;28;20027;-84
2023/01/05 01:40:55;;;;;;;2.20;0.65;;;;;;;;;;5105807;28;20024;-82
2023/01/05 01:43:39;;;;;;;1.60;0.50;;;;;;;;;;5112511;27;20054;-80
2023/01/05 01:46:06;;;;;;;1.20;0.50;;;;;;;;;;5133951;27;20033;-82
2023/01/05 01:48:33;;;;;;;1.25;0.60;;;;;;;;;;5119168;28;20039;-83
2023/01/05 01:51:01;;;;;;;1.23;0.50;;;;;;;;;;5116303;28;20028;-81
2023/01/05 01:53:47;;;;;;;2.25;0.70;;;;;;;;;;5119624;28;20066;-83
2023/01/05 01:56:15;;;;;;;1.10;0.52;;;;;;;;;;5099664;28;20032;-82
2023/01/05 01:58:41;;;;;;;3.83;0.70;;;;;;;;;;5108516;28;20043;-82
2023/01/05 02:01:07;;;;;;;1.77;0.77;;;;;;;;;;5109415;28;20028;-81
2023/01/05 02:03:33;;;;;;;2.22;0.55;;;;;;;;;;5117184;28;20057;-84
2023/01/05 02:06:00;;;;;;;1.23;0.60;;;;;;;;;;5099150;28;20039;-83
2023/01/05 02:08:31;;;;;;;1.75;0.50;;;;;;;;;;5106639;28;20047;-83
2023/01/05 02:11:30;;;;;;;2.13;0.50;;;;;;;;;;5118536;28;20027;-84
2023/01/05 02:13:56;;;;;;;2.35;0.75;;;;;;;;;;5043656;28;20041;-82
2023/01/05 02:16:40;;;;;;;2.97;0.80;;;;;;;;;;5051288;28;20546;-81
2023/01/05 02:19:23;;;;;;;1.45;0.50;;;;;;;;;;5042332;28;20029;-83
2023/01/05 02:22:08;;;;;;;2.20;0.75;;;;;;;;;;5046152;28;20028;-83
2023/01/05 02:24:54;;;;;;;2.03;0.80;;;;;;;;;;5058772;28;20029;-83
2023/01/05 02:27:20;;;;;;;1.92;0.90;;;;;;;;;;5033694;28;20498;-84
2023/01/05 02:29:46;;;;;;;1.35;0.68;;;;;;;;;;5061435;28;20037;-83
2023/01/05 02:32:18;;;;;;;1.40;0.60;;;;;;;;;;5026051;28;20021;-84
2023/01/05 02:34:55;;;;;;;2.40;0.80;;;;;;;;;;5063484;28;20029;-84
2023/01/05 02:37:31;;;;;;;2.50;0.88;;;;;;;;;;5045833;28;20406;-84
2023/01/05 02:39:59;;;;;;;2.33;0.90;;;;;;;;;;5042908;28;20033;-83
2023/01/05 02:42:27;;;;;;;1.77;0.73;;;;;;;;;;5035576;28;20037;-82
2023/01/05 02:44:53;;;;;;;1.25;0.60;;;;;;;;;;5048907;28;20049;-83
2023/01/05 02:47:24;;;;;;;1.30;0.70;;;;;;;;;;5036488;28;20089;-83
2023/01/05 02:50:11;;;;;;;1.20;0.60;;;;;;;;;;5088805;28;20041;-83
2023/01/05 02:52:40;;;;;;;1.92;0.80;;;;;;;;;;5115228;28;20049;-84
2023/01/05 02:55:09;;;;;;;1.80;0.70;;;;;;;;;;5103814;28;20428;-83
2023/01/05 02:57:47;;;;;;;1.08;0.60;;;;;;;;;;5106022;28;20031;-83
2023/01/05 03:00:15;;;;;;;1.98;0.70;;;;;;;;;;5122844;28;20027;-83
2023/01/05 03:02:42;;;;;;;1.42;0.50;;;;;;;;;;5119184;28;20163;-83
2023/01/05 03:05:10;;;;;;;1.38;0.60;;;;;;;;;;5114221;28;20032;-83
2023/01/05 03:07:38;;;;;;;2.28;0.90;;;;;;;;;;5112662;28;20048;-83
2023/01/05 03:15:37;;;;;;;0.63;0.30;;;;;;;;;;5104753;28;20082;-83
2023/01/05 03:18:09;;;;;;;1.25;0.52;;;;;;;;;;5118878;28;20121;-84
2023/01/05 03:20:37;;;;;;;0.80;0.40;;;;;;;;;;5110511;28;20457;-84
2023/01/05 03:37:08;;;;;;;1.02;0.50;;;;;;;;;;5110430;28;20059;-83
2023/01/05 03:39:37;;;;;;;7.40;3.38;;;;;;;;;;5107242;28;20099;-83
2023/01/05 03:42:04;;;;;;;5.10;1.67;;;;;;;;;;5110726;28;20044;-83
2023/01/05 03:44:30;;;;;;;4.30;1.63;;;;;;;;;;5126420;28;20165;-83
2023/01/05 03:46:56;;;;;;;3.28;1.30;;;;;;;;;;5124298;28;20031;-83
2023/01/05 03:49:22;;;;;;;2.13;0.90;;;;;;;;;;5107144;28;20024;-84
2023/01/05 03:51:48;;;;;;;2.25;0.60;;;;;;;;;;5127348;28;20047;-83
2023/01/05 03:54:14;;;;;;;0.63;0.38;;;;;;;;;;5128484;28;20456;-83
2023/01/05 03:56:40;;;;;;;1.65;0.80;;;;;;;;;;5111557;28;20032;-82
2023/01/05 03:59:06;;;;;;;1.95;0.70;;;;;;;;;;5111544;28;20053;-81
2023/01/05 04:01:32;;;;;;;1.63;0.60;;;;;;;;;;5126568;28;20463;-83
2023/01/05 04:03:58;;;;;;;1.27;0.60;;;;;;;;;;5106512;28;20050;-82
2023/01/05 04:06:25;;;;;;;1.35;0.60;;;;;;;;;;5111010;28;20035;-84
2023/01/05 04:08:51;;;;;;;1.70;0.55;;;;;;;;;;5105583;28;20566;-82
2023/01/05 04:11:18;;;;;;;2.60;1.10;;;;;;;;;;5111875;28;20024;-82
2023/01/05 04:13:44;;;;;;;1.90;0.85;;;;;;;;;;5105083;28;20031;-83
2023/01/05 04:16:10;;;;;;;1.55;0.60;;;;;;;;;;5114062;28;20032;-84
2023/01/05 04:18:36;;;;;;;2.58;1.08;;;;;;;;;;5111982;28;20305;-83
2023/01/05 04:21:03;;;;;;;2.28;0.80;;;;;;;;;;5108817;28;20032;-82
2023/01/05 04:23:29;;;;;;;2.40;0.88;;;;;;;;;;5122118;28;20020;-83
2023/01/05 04:25:55;;;;;;;2.55;1.00;;;;;;;;;;5121136;28;20024;-81
2023/01/05 04:28:21;;;;;;;2.63;1.10;;;;;;;;;;5123959;28;20047;-83
2023/01/05 04:30:51;;;;;;;0.93;0.40;;;;;;;;;;5130397;28;20028;-83
2023/01/05 04:33:17;;;;;;;2.40;0.90;;;;;;;;;;5128046;27;20023;-81
2023/01/05 04:35:43;;;;;;;1.70;0.70;;;;;;;;;;5128366;27;20012;-82
2023/01/05 04:38:09;;;;;;;1.45;0.68;;;;;;;;;;5119027;28;20079;-83
2023/01/05 04:40:35;;;;;;;1.35;0.50;;;;;;;;;;5121686;28;20042;-81
2023/01/05 04:43:01;;;;;;;1.13;0.57;;;;;;;;;;5122398;28;20067;-82
2023/01/05 04:45:27;;;;;;;1.83;0.70;;;;;;;;;;5123955;28;20485;-82
2023/01/05 04:47:53;;;;;;;2.30;0.70;;;;;;;;;;5123170;28;20039;-81
2023/01/05 04:50:20;;;;;;;0.93;0.50;;;;;;;;;;5113377;28;20024;-80
2023/01/05 04:52:46;;;;;;;1.63;0.70;;;;;;;;;;5121287;28;20034;-81
2023/01/05 04:55:12;;;;;;;0.80;0.40;;;;;;;;;;5122727;28;20501;-82
2023/01/05 04:57:38;;;;;;;1.30;0.50;;;;;;;;;;5104810;28;20525;-83
2023/01/05 05:00:04;;;;;;;1.58;0.68;;;;;;;;;;5112517;28;20062;-85
2023/01/05 05:02:30;;;;;;;2.85;0.73;;;;;;;;;;5126987;28;20397;-82
2023/01/05 05:04:56;;;;;;;2.17;0.85;;;;;;;;;;5130527;28;20024;-86
2023/01/05 05:07:22;;;;;;;2.35;1.48;;;;;;;;;;5112494;28;20035;-80
2023/01/05 05:09:48;;;;;;;1.42;0.90;;;;;;;;;;5110465;28;20008;-80
2023/01/05 05:12:19;;;;;;;3.40;1.00;;;;;;;;;;5105851;28;20035;-82
2023/01/05 05:14:45;;;;;;;1.38;0.65;;;;;;;;;;5116869;28;20095;-83
2023/01/05 05:17:11;;;;;;;4.20;1.88;;;;;;;;;;5107269;27;20118;-83
2023/01/05 05:19:37;;;;;;;6.80;4.78;;;;;;;;;;5115759;28;20394;-82
2023/01/05 05:22:03;;;;;;;1.42;0.70;;;;;;;;;;5114075;28;20050;-84
2023/01/05 05:24:29;;;;;;;0.98;0.50;;;;;;;;;;5106146;28;20027;-83
2023/01/05 05:26:56;;;;;;;3.85;2.28;;;;;;;;;;5112450;28;20032;-83
2023/01/05 05:29:22;;;;;;;1.77;0.77;;;;;;;;;;5113652;28;20016;-81
2023/01/05 05:31:51;;;;;;;1.73;0.70;;;;;;;;;;5121074;28;20055;-83
2023/01/05 05:34:17;;;;;;;5.13;2.90;;;;;;;;;;5116389;27;20039;-81
2023/01/05 05:36:44;;;;;;;2.38;0.80;;;;;;;;;;5124728;28;20493;-82
2023/01/05 05:39:13;;;;;;;1.88;0.70;;;;;;;;;;5113029;28;20047;-81
2023/01/05 05:41:39;;;;;;;4.22;1.98;;;;;;;;;;5116945;28;20047;-83
2023/01/05 05:44:05;;;;;;;3.75;1.30;;;;;;;;;;5114061;28;20448;-82
2023/01/05 05:46:31;;;;;;;2.38;0.90;;;;;;;;;;5107109;28;20032;-83
2023/01/05 05:48:59;;;;;;;1.88;0.80;;;;;;;;;;5118849;28;20087;-82
2023/01/05 05:51:25;;;;;;;2.63;0.93;;;;;;;;;;5112700;28;20028;-81
2023/01/05 05:53:51;;;;;;;1.02;0.60;;;;;;;;;;5119616;28;20035;-84
2023/01/05 05:56:17;;;;;;;1.90;0.70;;;;;;;;;;5105376;28;20055;-82
2023/01/05 05:58:43;;;;;;;4.13;1.58;;;;;;;;;;5105723;28;20070;-83
2023/01/05 06:01:10;;;;;;;1.63;0.77;;;;;;;;;;5107644;28;20026;-82
2023/01/05 06:03:36;;;;;;;1.75;0.70;;;;;;;;;;5113207;28;20031;-83
2023/01/05 06:06:02;;;;;;;2.25;1.00;;;;;;;;;;5105438;28;20587;-81
2023/01/05 06:08:29;;;;;;;2.45;1.00;;;;;;;;;;5107265;28;20119;-82
2023/01/05 06:10:55;;;;;;;2.92;1.17;;;;;;;;;;5110084;28;20026;-79
2023/01/05 06:13:21;;;;;;;2.95;1.63;;;;;;;;;;5120238;28;20043;-84
2023/01/05 06:15:47;;;;;;;2.88;0.90;;;;;;;;;;5103965;28;20024;-80
2023/01/05 06:18:13;;;;;;;1.40;0.63;;;;;;;;;;5106364;28;20030;-81
2023/01/05 06:20:40;;;;;;;2.03;0.90;;;;;;;;;;5105780;28;20020;-81
2023/01/05 06:23:06;;;;;;;2.63;0.73;;;;;;;;;;5108793;27;20036;-81
2023/01/05 06:25:32;;;;;;;2.80;0.73;;;;;;;;;;5111155;28;20043;-81
2023/01/05 06:27:58;;;;;;;0.90;0.50;;;;;;;;;;5115244;28;20053;-82
2023/01/05 06:30:24;;;;;;;1.70;0.70;;;;;;;;;;5101895;28;20028;-81
2023/01/05 06:32:50;;;;;;;1.80;0.80;;;;;;;;;;5108358;28;20038;-80
2023/01/05 06:35:16;;;;;;;1.63;0.75;;;;;;;;;;5117557;28;20024;-81
2023/01/05 06:37:42;;;;;;;1.58;0.70;;;;;;;;;;5117371;28;20087;-80
2023/01/05 06:40:10;;;;;;;1.73;0.73;;;;;;;;;;5122963;28;20439;-81
2023/01/05 06:42:40;;;;;;;1.98;0.95;;;;;;;;;;5109178;28;20174;-81
2023/01/05 06:45:06;;;;;;;1.73;0.77;;;;;;;;;;5104483;28;20044;-80
2023/01/05 06:47:33;;;;;;;1.23;0.60;;;;;;;;;;5098824;28;20432;-81
2023/01/05 06:49:59;;;;;;;0.80;0.50;;;;;;;;;;5105223;28;20024;-81
2023/01/05 06:52:25;;;;;;;1.25;0.60;;;;;;;;;;5100005;28;20119;-80
2023/01/05 06:54:51;;;;;;;1.50;0.60;;;;;;;;;;5109299;28;20015;-81
2023/01/05 06:57:17;;;;;;;1.75;0.57;;;;;;;;;;5115114;28;20145;-80
2023/01/05 06:59:43;;;;;;;0.82;0.50;;;;;;;;;;5110302;28;20078;-82
2023/01/05 07:02:16;;;;;;;1.80;0.70;;;;;;;;;;5116117;28;20024;-78
2023/01/05 07:04:42;;;;;;;0.50;0.50;;;;;;;;;;5106253;28;21136;-79
2023/01/05 07:07:13;;;;;;;2.15;0.63;;;;;;;;;;5103429;28;20046;-79
2023/01/05 07:09:40;;;;;;;1.70;0.60;;;;;;;;;;5117063;28;20019;-81
2023/01/05 07:12:06;;;;;;;1.73;0.80;;;;;;;;;;5110952;28;20077;-81
2023/01/05 07:14:32;;;;;;;1.88;0.70;;;;;;;;;;5120198;27;20083;-81
2023/01/05 07:16:59;;;;;;;2.35;0.80;;;;;;;;;;5106689;28;20055;-84
2023/01/05 07:19:25;;;;;;;2.03;0.60;;;;;;;;;;5104380;28;20082;-80
2023/01/05 07:21:51;;;;;;;1.70;0.57;;;;;;;;;;5123190;28;20028;-82
2023/01/05 07:24:17;;;;;;;1.30;0.60;;;;;;;;;;5122248;28;20028;-82
2023/01/05 07:26:43;;;;;;;1.98;0.60;;;;;;;;;;5100944;28;20031;-82
2023/01/05 07:29:09;;;;;;;2.25;0.60;;;;;;;;;;5106002;28;20032;-80
2023/01/05 07:31:35;;;;;;;1.63;0.70;;;;;;;;;;5107541;28;20054;-85
2023/01/05 07:34:01;;;;;;;1.58;0.70;;;;;;;;;;5121524;28;20539;-81
2023/01/05 07:36:27;;;;;;;1.77;0.80;;;;;;;;;;5113875;28;20486;-81
2023/01/05 07:38:53;;;;;;;2.08;0.90;;;;;;;;;;5117628;28;20474;-81
2023/01/05 07:41:19;;;;;;;3.28;1.10;;;;;;;;;;5126166;28;20035;-82
2023/01/05 07:43:48;;;;;;;3.03;1.20;;;;;;;;;;5115206;28;20048;-81
2023/01/05 07:46:14;;;;;;;2.33;1.00;;;;;;;;;;5120043;28;20033;-81
2023/01/05 07:48:41;;;;;;;2.47;0.80;;;;;;;;;;5115607;27;20049;-80
2023/01/05 07:51:07;;;;;;;2.28;1.02;;;;;;;;;;5123869;28;20076;-81
2023/01/05 07:53:36;;;;;;;2.65;1.10;;;;;;;;;;5122213;28;20095;-82
2023/01/05 07:56:02;;;;;;;2.58;1.17;;;;;;;;;;5121019;28;20023;-79
2023/01/05 07:58:28;;;;;;;2.50;0.88;;;;;;;;;;5114090;28;20024;-80
2023/01/05 08:00:55;;;;;;;3.08;1.48;;;;;;;;;;5109734;28;20023;-81
2023/01/05 08:03:22;;;;;;;2.35;0.93;;;;;;;;;;5122310;27;20082;-81
2023/01/05 08:05:48;;;;;;;2.97;1.10;;;;;;;;;;5109433;28;20055;-77
2023/01/05 08:08:14;;;;;;;2.45;0.93;;;;;;;;;;5110209;28;20016;-79
2023/01/05 08:10:41;;;;;;;2.00;0.80;;;;;;;;;;5108727;28;20028;-81
2023/01/05 08:15:53;;;;;;;1.63;0.68;;;;;;;;;;5112611;28;20031;-80
2023/01/05 08:18:20;;;;;;;1.15;0.60;;;;;;;;;;5126353;28;20049;-82
2023/01/05 08:20:50;;;;;;;2.70;0.93;;;;;;;;;;5122714;28;20027;-80
2023/01/05 08:23:16;;;;;;;1.30;0.60;;;;;;;;;;5118758;28;20024;-80
2023/01/05 08:25:42;;;;;;;2.15;0.90;;;;;;;;;;5124470;28;20030;-79
2023/01/05 08:28:08;;;;;;;3.40;1.40;;;;;;;;;;5125491;28;20020;-79
2023/01/05 08:30:34;;;;;;;4.13;2.40;;;;;;;;;;5123664;28;20430;-80
2023/01/05 08:33:00;;;;;;;3.35;1.35;;;;;;;;;;5117401;28;20212;-84
2023/01/05 08:35:27;;;;;;;2.42;0.77;;;;;;;;;;5102852;28;20394;-80
2023/01/05 08:37:52;;;;;;;2.05;0.73;;;;;;;;;;5113944;28;20027;-80
2023/01/05 08:40:19;;;;;;;2.50;1.02;;;;;;;;;;5124696;28;20031;-80
2023/01/05 08:42:47;;;;;;;1.67;0.73;;;;;;;;;;5119402;28;20051;-82
2023/01/05 08:45:14;;;;;;;1.67;0.60;;;;;;;;;;5103736;28;20024;-81
2023/01/05 08:47:40;;;;;;;2.38;0.88;;;;;;;;;;5106081;28;20020;-82
2023/01/05 08:50:08;;;;;;;2.08;0.70;;;;;;;;;;5104746;28;20076;-81
2023/01/05 08:52:34;;;;;;;1.80;0.80;;;;;;;;;;5114653;28;20024;-80
2023/01/05 08:55:00;;;;;;;3.58;1.52;;;;;;;;;;5124006;28;20011;-78
2023/01/05 08:57:26;;;;;;;1.50;0.70;;;;;;;;;;5124433;28;20027;-81
2023/01/05 08:59:52;;;;;;;1.42;0.60;;;;;;;;;;5124416;28;20026;-82
2023/01/05 09:02:18;;;;;;;1.67;0.80;;;;;;;;;;5123131;28;20087;-79
2023/01/05 09:04:44;;;;;;;1.67;0.80;;;;;;;;;;5124106;28;20055;-78
2023/01/05 09:07:10;;;;;;;2.13;0.60;;;;;;;;;;5106394;28;20051;-81
2023/01/05 09:09:36;;;;;;;2.42;1.23;;;;;;;;;;5100992;28;20400;-80
2023/01/05 09:12:02;;;;;;;3.20;0.93;;;;;;;;;;5101327;28;20111;-80
2023/01/05 09:14:28;;;;;;;1.35;0.65;;;;;;;;;;5103059;28;20106;-79
2023/01/05 09:16:54;;;;;;;1.80;0.60;;;;;;;;;;5102624;28;20328;-80
2023/01/05 09:19:20;;;;;;;2.03;0.88;;;;;;;;;;5108682;28;20068;-81
2023/01/05 09:21:46;;;;;;;1.75;0.85;;;;;;;;;;5123114;28;20032;-80
2023/01/05 09:24:12;;;;;;;1.95;0.80;;;;;;;;;;5122758;28;20073;-79
2023/01/05 09:26:38;;;;;;;1.67;0.70;;;;;;;;;;5106681;28;20027;-80
2023/01/05 09:29:04;;;;;;;1.83;0.80;;;;;;;;;;5110905;27;20016;-80
2023/01/05 09:31:30;;;;;;;2.33;0.93;;;;;;;;;;5121334;28;20515;-81
2023/01/05 09:33:57;;;;;;;2.75;1.10;;;;;;;;;;5119639;28;20420;-79
2023/01/05 09:36:24;;;;;;;2.50;0.90;;;;;;;;;;5114354;28;20015;-80
2023/01/05 09:38:55;;;;;;;3.05;0.90;;;;;;;;;;5112868;28;20106;-82
2023/01/05 09:41:24;;;;;;;3.55;1.20;;;;;;;;;;5108911;28;20123;-79
2023/01/05 09:44:11;;;;;;;2.63;1.00;;;;;;;;;;5105540;27;20134;-81
2023/01/05 09:46:39;;;;;;;2.22;0.80;;;;;;;;;;5102947;28;20036;-79
2023/01/05 09:49:07;;;;;;;1.35;0.77;;;;;;;;;;5105277;28;20024;-79
2023/01/05 09:51:34;;;;;;;4.00;0.90;;;;;;;;;;5094867;28;20032;-81
2023/01/05 09:54:01;;;;;;;4.70;1.25;;;;;;;;;;5102332;28;20022;-80
2023/01/05 09:56:27;;;;;;;2.38;0.80;;;;;;;;;;5101391;28;20032;-81
2023/01/05 09:58:58;;;;;;;3.08;0.80;;;;;;;;;;5110397;28;20031;-79
2023/01/05 10:01:24;;;;;;;2.03;0.60;;;;;;;;;;5109683;28;20038;-78
2023/01/05 10:03:50;;;;;;;1.20;0.45;;;;;;;;;;5110728;28;20031;-78
2023/01/05 10:06:17;;;;;;;1.15;0.45;;;;;;;;;;5096608;28;20386;-80
2023/01/05 10:08:49;;;;;;;2.05;0.57;;;;;;;;;;5112353;28;20020;-80
2023/01/05 10:14:08;;;;;;;1.08;0.47;;;;;;;;;;5114458;28;20172;-80
2023/01/05 10:16:34;;;;;;;3.85;0.60;;;;;;;;;;5099008;28;20040;-78
2023/01/05 10:19:01;;;;;;;1.83;0.60;;;;;;;;;;5102980;28;20039;-80
2023/01/05 10:21:36;;;;;;;1.70;0.55;;;;;;;;;;5114278;28;20024;-78
2023/01/05 10:24:11;;;;;;;4.72;0.82;;;;;;;;;;5114467;28;20030;-78
2023/01/05 10:26:47;;;;;;;2.58;0.80;;;;;;;;;;5112849;28;20035;-81
2023/01/05 10:29:16;;;;;;;2.83;0.82;;;;;;;;;;5102930;28;20024;-78
2023/01/05 10:31:54;;;;;;;2.08;0.70;;;;;;;;;;5104209;28;20020;-79
2023/01/05 10:34:22;;;;;;;2.10;0.77;;;;;;;;;;5114173;28;20019;-83
2023/01/05 10:36:54;;;;;;;4.28;1.23;;;;;;;;;;5113862;28;20069;-80
2023/01/05 10:39:25;;;;;;;2.47;0.70;;;;;;;;;;5094001;28;20490;-80
2023/01/05 10:42:00;;;;;;;2.72;0.77;;;;;;;;;;5094044;28;20107;-80
2023/01/05 10:44:26;;;;;;;2.20;0.80;;;;;;;;;;5098305;28;20513;-80
2023/01/05 10:46:52;;;;;;;2.97;0.80;;;;;;;;;;5099169;28;20046;-79
2023/01/05 10:49:20;;;;;;;5.20;1.40;;;;;;;;;;5101487;28;20039;-81
2023/01/05 10:51:47;;;;;;;5.55;1.73;;;;;;;;;;5098777;28;20069;-82
2023/01/05 10:54:29;;;;;;;6.72;1.73;;;;;;;;;;5115174;28;20038;-79
2023/01/05 10:56:55;;;;;;;3.70;1.40;;;;;;;;;;5117127;28;20020;-81
2023/01/05 10:59:21;;;;;;;10.13;2.35;;;;;;;;;;5113542;28;20497;-82
2023/01/05 11:01:48;;;;;;;4.25;1.33;;;;;;;;;;5097647;28;20090;-78
2023/01/05 11:04:23;;;;;;;5.20;1.23;;;;;;;;;;5095961;28;20114;-80
2023/01/05 11:06:49;;;;;;;2.85;0.82;;;;;;;;;;5096719;28;20016;-80
2023/01/05 11:09:19;;;;;;;4.28;1.00;;;;;;;;;;5116098;28;20097;-79
2023/01/05 11:11:53;;;;;;;2.95;1.00;;;;;;;;;;5117690;28;20030;-78
2023/01/05 11:14:20;;;;;;;2.92;1.05;;;;;;;;;;5117031;28;20023;-81
2023/01/05 11:16:51;;;;;;;4.78;1.08;;;;;;;;;;5117980;28;20031;-79
2023/01/05 11:19:20;;;;;;;2.60;0.75;;;;;;;;;;5117566;28;20028;-80
2023/01/05 11:21:46;;;;;;;4.10;1.10;;;;;;;;;;5116195;28;20030;-79
2023/01/05 11:24:24;;;;;;;2.58;1.02;;;;;;;;;;5095883;28;20409;-78
2023/01/05 11:26:51;;;;;;;4.68;1.55;;;;;;;;;;5096716;28;20024;-81
2023/01/05 11:29:18;;;;;;;4.43;1.02;;;;;;;;;;5119104;28;20118;-78
2023/01/05 11:31:56;;;;;;;3.95;1.23;;;;;;;;;;5121416;28;20083;-79
2023/01/05 11:34:25;;;;;;;2.35;0.70;;;;;;;;;;5122943;28;20546;-83
2023/01/05 11:36:59;;;;;;;2.28;1.00;;;;;;;;;;5118377;28;20051;-81
2023/01/05 11:39:28;;;;;;;3.47;1.05;;;;;;;;;;5103280;28;20020;-81
2023/01/05 11:42:12;;;;;;;3.15;0.90;;;;;;;;;;5098738;28;20028;-81
2023/01/05 11:44:41;;;;;;;3.10;0.95;;;;;;;;;;5100284;28;20044;-80
2023/01/05 11:47:08;;;;;;;2.42;0.88;;;;;;;;;;5101522;28;20108;-81
2023/01/05 11:49:35;;;;;;;4.07;1.05;;;;;;;;;;5102681;28;20016;-80
2023/01/05 11:52:01;;;;;;;4.03;1.00;;;;;;;;;;5102222;28;20111;-82
2023/01/05 11:54:35;;;;;;;2.67;0.63;;;;;;;;;;5101576;28;20051;-83
2023/01/05 11:57:07;;;;;;;2.35;0.80;;;;;;;;;;5106621;28;20034;-83
2023/01/05 11:59:37;;;;;;;3.47;1.10;;;;;;;;;;5124525;28;20081;-80
2023/01/05 12:02:03;;;;;;;4.90;0.98;;;;;;;;;;5126340;28;20084;-82
2023/01/05 12:04:36;;;;;;;3.35;1.08;;;;;;;;;;5123510;28;20070;-79
2023/01/05 12:07:09;;;;;;;3.55;0.88;;;;;;;;;;5107742;28;20026;-84
2023/01/05 12:09:37;;;;;;;3.50;0.85;;;;;;;;;;5107750;28;20036;-82
2023/01/05 12:12:22;;;;;;;3.13;1.13;;;;;;;;;;5106039;28;20020;-84
2023/01/05 12:14:54;;;;;;;2.97;0.90;;;;;;;;;;5102035;28;20072;-81
2023/01/05 12:17:25;;;;;;;5.43;1.25;;;;;;;;;;5104417;28;20125;-83
2023/01/05 12:19:51;;;;;;;4.78;1.30;;;;;;;;;;5101351;28;20044;-81
2023/01/05 12:22:33;;;;;;;3.63;1.17;;;;;;;;;;5122300;27;20100;-84
2023/01/05 12:25:08;;;;;;;3.80;1.52;;;;;;;;;;5119325;28;20055;-83
2023/01/05 12:27:37;;;;;;;3.35;1.27;;;;;;;;;;5116393;28;20030;-83
2023/01/05 12:30:03;;;;;;;4.85;1.20;;;;;;;;;;5121826;28;20416;-82
2023/01/05 12:32:38;;;;;;;5.15;1.45;;;;;;;;;;5119501;28;20019;-82
2023/01/05 12:35:23;;;;;;;6.45;1.20;;;;;;;;;;5107439;28;20099;-84
2023/01/05 12:37:53;;;;;;;3.80;0.90;;;;;;;;;;5102621;28;20031;-84
2023/01/05 12:40:45;;;;;;;3.42;1.00;;;;;;;;;;5099116;28;20024;-81
2023/01/05 12:43:26;;;;;;;2.78;1.10;;;;;;;;;;5095934;28;20060;-82
2023/01/05 12:46:11;;;;;;;2.65;0.80;;;;;;;;;;5099191;28;20051;-80
2023/01/05 12:48:39;;;;;;;3.08;0.88;;;;;;;;;;5112183;28;20070;-82
2023/01/05 12:51:06;;;;;;;3.35;0.88;;;;;;;;;;5100620;28;20163;-80
2023/01/05 12:53:35;;;;;;;4.40;1.10;;;;;;;;;;5116424;28;20043;-82
2023/01/05 12:56:13;;;;;;;2.53;0.80;;;;;;;;;;5117264;28;20280;-82
2023/01/05 12:58:42;;;;;;;4.18;1.00;;;;;;;;;;5100060;28;20123;-83
2023/01/05 13:01:15;;;;;;;4.43;1.13;;;;;;;;;;5097940;28;20095;-81
2023/01/05 13:03:41;;;;;;;4.15;1.00;;;;;;;;;;5099266;28;20382;-83
2023/01/05 13:06:13;;;;;;;4.15;1.00;;;;;;;;;;5119070;28;20105;-80
2023/01/05 13:08:50;;;;;;;4.03;1.02;;;;;;;;;;5100789;28;20092;-79
2023/01/05 13:11:34;;;;;;;4.22;0.95;;;;;;;;;;5096726;28;20020;-81
2023/01/05 13:14:05;;;;;;;4.03;1.10;;;;;;;;;;5095753;28;20020;-81
2023/01/05 13:16:34;;;;;;;3.78;1.00;;;;;;;;;;5095995;28;20024;-81
2023/01/05 13:19:02;;;;;;;4.65;1.00;;;;;;;;;;5095581;28;20028;-78
2023/01/05 13:21:29;;;;;;;2.60;0.90;;;;;;;;;;5095206;28;20091;-82
2023/01/05 13:24:01;;;;;;;3.22;0.85;;;;;;;;;;5095841;28;20055;-80
2023/01/05 13:26:29;;;;;;;3.35;0.88;;;;;;;;;;5094676;28;20035;-81
2023/01/05 13:28:55;;;;;;;2.53;0.80;;;;;;;;;;5096146;28;20020;-80
2023/01/05 13:31:22;;;;;;;5.78;1.10;;;;;;;;;;5096171;28;20035;-82
2023/01/05 13:34:11;;;;;;;3.13;1.00;;;;;;;;;;5094465;28;20086;-80
2023/01/05 13:36:49;;;;;;;4.45;1.00;;;;;;;;;;5085889;28;20482;-81
2023/01/05 13:39:17;;;;;;;4.43;1.08;;;;;;;;;;5096065;28;20112;-82
2023/01/05 13:41:52;;;;;;;2.90;0.90;;;;;;;;;;5095303;28;20455;-81
2023/01/05 13:44:37;;;;;;;4.93;1.20;;;;;;;;;;5096208;28;20048;-82
2023/01/05 13:47:28;;;;;;;4.47;1.55;;;;;;;;;;5104103;28;20385;-81
2023/01/05 13:50:00;;;;;;;3.38;1.25;;;;;;;;;;5096136;28;20449;-80
2023/01/05 13:52:42;;;;;;;3.80;1.00;;;;;;;;;;5096128;28;20077;-82
2023/01/05 13:55:13;;;;;;;3.58;1.10;;;;;;;;;;5094733;28;20505;-78
2023/01/05 13:57:41;;;;;;;3.42;1.00;;;;;;;;;;5110370;28;20091;-81
2023/01/05 14:00:20;;;;;;;3.90;0.93;;;;;;;;;;5115751;28;20027;-81
2023/01/05 14:02:53;;;;;;;5.53;1.00;;;;;;;;;;5097648;28;20426;-83
2023/01/05 14:05:24;;;;;;;2.97;0.98;;;;;;;;;;5116794;28;20070;-83
2023/01/05 14:07:51;;;;;;;3.10;0.88;;;;;;;;;;5115122;28;20088;-82
2023/01/05 14:10:22;;;;;;;2.83;0.70;;;;;;;;;;5112011;28;20020;-80
2023/01/05 14:12:49;;;;;;;4.05;0.95;;;;;;;;;;5095599;28;20024;-79
2023/01/05 14:15:34;;;;;;;3.17;0.68;;;;;;;;;;5097324;28;20024;-81
2023/01/05 14:18:01;;;;;;;3.15;0.90;;;;;;;;;;5094354;28;20123;-79
2023/01/05 14:20:47;;;;;;;3.55;0.80;;;;;;;;;;5095293;28;20024;-81
2023/01/05 14:23:23;;;;;;;3.35;0.73;;;;;;;;;;5097143;28;20024;-79
2023/01/05 14:25:52;;;;;;;3.13;0.82;;;;;;;;;;5097053;28;20525;-81
2023/01/05 14:28:24;;;;;;;2.45;0.70;;;;;;;;;;5093928;28;20024;-79
2023/01/05 14:30:51;;;;;;;3.22;0.82;;;;;;;;;;5095066;28;20027;-80
2023/01/05 14:33:18;;;;;;;3.58;0.80;;;;;;;;;;5097968;28;20024;-82
2023/01/05 14:35:45;;;;;;;2.72;1.00;;;;;;;;;;5097817;28;20021;-81
2023/01/05 14:38:14;;;;;;;4.78;1.10;;;;;;;;;;5107574;28;20043;-81
2023/01/05 14:40:44;;;;;;;2.97;0.80;;;;;;;;;;5117216;28;20038;-79
2023/01/05 14:43:30;;;;;;;3.50;0.77;;;;;;;;;;5115532;28;20039;-80
2023/01/05 14:46:01;;;;;;;3.15;0.88;;;;;;;;;;5115951;28;20513;-81
2023/01/05 14:48:29;;;;;;;4.07;0.85;;;;;;;;;;5102339;28;20084;-80
2023/01/05 14:51:14;;;;;;;3.30;0.85;;;;;;;;;;5097015;28;20016;-82
2023/01/05 14:53:42;;;;;;;4.15;1.33;;;;;;;;;;5094175;28;20020;-80
2023/01/05 14:56:08;;;;;;;2.53;0.70;;;;;;;;;;5095894;28;20024;-80
2023/01/05 14:58:36;;;;;;;2.78;0.82;;;;;;;;;;5110163;28;20541;-82
2023/01/05 15:01:02;;;;;;;3.65;0.80;;;;;;;;;;5114137;28;20052;-79
2023/01/05 15:03:29;;;;;;;2.13;0.70;;;;;;;;;;5117276;28;20091;-81
2023/01/05 15:05:58;;;;;;;3.80;0.70;;;;;;;;;;5112993;28;20027;-80
2023/01/05 15:08:30;;;;;;;1.98;0.60;;;;;;;;;;5100266;28;20038;-81
2023/01/05 15:11:08;;;;;;;2.58;0.90;;;;;;;;;;5112017;28;20027;-80
2023/01/05 15:13:37;;;;;;;4.50;0.82;;;;;;;;;;5115318;28;20031;-81
2023/01/05 15:16:06;;;;;;;3.42;0.70;;;;;;;;;;5112888;28;20034;-81
2023/01/05 15:18:51;;;;;;;2.67;0.85;;;;;;;;;;5098617;28;20067;-80
2023/01/05 15:21:39;;;;;;;3.67;0.65;;;;;;;;;;5094596;28;20078;-80
2023/01/05 15:24:23;;;;;;;3.35;0.85;;;;;;;;;;5099923;28;20480;-81
2023/01/05 15:27:08;;;;;;;5.35;1.52;;;;;;;;;;5093706;28;20028;-79
2023/01/05 15:29:34;;;;;;;2.45;0.60;;;;;;;;;;5096441;28;20020;-81
2023/01/05 15:32:03;;;;;;;2.10;0.57;;;;;;;;;;5101520;28;20035;-82